Time;durP1;ratioP1;P1;durP2;ratioP2;P2;SDS_P1;SDS_P2;PMS_P1;PMS_P2;Temp;Humidity;BMP_temperature;BMP_pressure;BME280_temperature;BME280_humidity;BME280_pressure;Samples;Min_cycle;Max_cycle;Signal;HPM_P1;HPM_P2
2023/02/09 00:00:04;;;;;;;20.23;10.00;;;3.60;66.30;;;;;;2523318;52;20924;-82
2023/02/09 00:02:32;;;;;;;20.55;10.80;;;3.60;66.30;;;;;;2522977;53;20919;-81
2023/02/09 00:04:59;;;;;;;19.85;10.05;;;3.50;66.20;;;;;;2523399;52;20915;-81
2023/02/09 00:07:25;;;;;;;17.20;9.38;;;3.60;66.30;;;;;;2289369;53;20987;-81
2023/02/09 00:09:51;;;;;;;19.45;9.85;;;3.50;66.10;;;;;;2523602;52;21007;-81
2023/02/09 00:15:04;;;;;;;18.58;9.20;;;3.50;66.10;;;;;;2297825;53;20935;-82
2023/02/09 00:17:32;;;;;;;19.42;9.65;;;3.40;65.90;;;;;;2524446;52;20915;-82
2023/02/09 00:19:58;;;;;;;17.08;8.25;;;3.40;65.80;;;;;;2523716;52;20931;-82
2023/02/09 00:22:25;;;;;;;16.15;7.82;;;3.40;65.70;;;;;;2299243;53;21026;-82
2023/02/09 00:24:51;;;;;;;14.77;7.28;;;3.30;65.60;;;;;;2543873;52;21041;-82
2023/02/09 00:27:17;;;;;;;14.73;7.12;;;3.30;65.50;;;;;;2523885;52;20809;-82
2023/02/09 00:29:44;;;;;;;14.95;7.87;;;3.20;65.30;;;;;;2524460;52;21095;-81
2023/02/09 00:32:10;;;;;;;15.55;8.40;;;3.20;65.20;;;;;;2523861;52;20951;-82
2023/02/09 00:34:37;;;;;;;15.02;7.68;;;3.10;65.00;;;;;;2524534;52;22039;-82
2023/02/09 00:37:03;;;;;;;17.67;8.95;;;3.10;65.00;;;;;;2524326;52;20935;-82
2023/02/09 00:39:30;;;;;;;18.67;8.95;;;3.00;65.00;;;;;;2524419;52;21071;-82
2023/02/09 00:42:04;;;;;;;17.05;8.27;;;3.00;65.00;;;;;;2524655;52;20975;-81
2023/02/09 00:44:32;;;;;;;18.90;9.00;;;2.90;65.00;;;;;;2289497;53;20943;-82
2023/02/09 00:46:58;;;;;;;20.12;8.85;;;2.90;65.00;;;;;;2523618;52;20911;-82
2023/02/09 00:49:24;;;;;;;22.25;10.23;;;2.80;64.90;;;;;;2524529;52;21011;-82
2023/02/09 00:51:51;;;;;;;17.55;9.25;;;2.80;65.00;;;;;;2524037;52;21432;-81
2023/02/09 00:54:17;;;;;;;16.70;8.43;;;2.70;65.00;;;;;;2289162;53;20911;-82
2023/02/09 00:56:43;;;;;;;18.65;8.75;;;2.50;64.80;;;;;;2522883;52;21426;-80
2023/02/09 00:59:10;;;;;;;15.75;7.80;;;2.70;65.10;;;;;;2524523;52;20915;-82
2023/02/09 01:01:36;;;;;;;13.05;6.53;;;2.60;65.00;;;;;;2524098;52;22065;-82
2023/02/09 01:04:02;;;;;;;15.77;8.35;;;2.50;64.90;;;;;;2523788;52;20959;-82
2023/02/09 01:06:29;;;;;;;18.87;9.35;;;2.50;64.90;;;;;;2524249;52;20895;-82
2023/02/09 01:08:55;;;;;;;15.63;7.32;;;2.50;65.00;;;;;;2520825;52;20872;-82
2023/02/09 01:11:25;;;;;;;15.40;7.18;;;2.40;64.90;;;;;;2288756;53;20876;-81
2023/02/09 01:13:52;;;;;;;14.73;7.78;;;2.40;64.90;;;;;;2523688;52;21436;-82
2023/02/09 01:16:19;;;;;;;16.67;8.65;;;2.30;64.90;;;;;;2523863;52;22403;-81
2023/02/09 01:18:45;;;;;;;19.00;9.48;;;2.30;65.00;;;;;;2288364;53;21639;-82
2023/02/09 01:21:16;;;;;;;20.05;8.95;;;2.20;65.00;;;;;;2288350;53;20916;-82
2023/02/09 01:23:42;;;;;;;19.25;9.57;;;2.20;65.10;;;;;;2523357;52;20954;-82
2023/02/09 01:26:09;;;;;;;14.80;7.55;;;2.20;65.20;;;;;;2315469;53;20980;-82
2023/02/09 01:28:35;;;;;;;18.08;9.00;;;2.20;65.30;;;;;;2523209;52;21070;-81
2023/02/09 01:31:03;;;;;;;18.52;9.90;;;2.10;65.20;;;;;;2523628;52;20927;-82
2023/02/09 01:33:30;;;;;;;17.77;9.13;;;2.10;65.30;;;;;;2523407;52;20911;-82
2023/02/09 01:36:02;;;;;;;15.52;7.95;;;2.10;65.30;;;;;;2523818;52;22062;-83
2023/02/09 01:38:28;;;;;;;;;;;2.10;66.00;;;;;;2527386;52;20947;-82
2023/02/09 01:40:55;;;;;;;17.45;7.90;;;2.10;64.20;;;;;;2288778;54;20167;-83
2023/02/09 01:43:21;;;;;;;14.32;7.57;;;2.00;65.30;;;;;;2522906;52;21501;-82
2023/02/09 01:45:49;;;;;;;15.77;7.95;;;2.00;65.40;;;;;;2523344;52;20943;-82
2023/02/09 01:48:17;;;;;;;17.65;8.73;;;2.00;65.50;;;;;;2523417;52;21003;-82
2023/02/09 01:50:44;;;;;;;19.60;9.80;;;1.90;65.50;;;;;;2523484;52;21797;-82
2023/02/09 01:53:11;;;;;;;20.85;9.77;;;1.90;65.60;;;;;;2289064;54;20983;-82
2023/02/09 01:55:41;;;;;;;19.45;9.55;;;1.90;65.70;;;;;;2523471;52;20951;-82
2023/02/09 01:58:10;;;;;;;20.25;9.95;;;1.90;65.80;;;;;;2523876;52;20947;-81
2023/02/09 02:00:36;;;;;;;21.87;9.63;;;1.90;65.90;;;;;;2293737;54;20951;-82
2023/02/09 02:03:04;;;;;;;15.50;7.97;;;1.70;65.60;;;;;;2523406;52;21427;-82
2023/02/09 02:05:33;;;;;;;16.25;8.63;;;1.90;66.00;;;;;;2315305;54;21303;-82
2023/02/09 02:08:06;;;;;;;19.42;9.00;;;1.90;66.00;;;;;;2555297;52;21007;-82
2023/02/09 02:10:33;;;;;;;18.40;8.65;;;1.90;65.90;;;;;;2527081;52;20882;-82
2023/02/09 02:12:59;;;;;;;18.05;8.43;;;1.90;66.00;;;;;;2312829;54;21396;-81
2023/02/09 02:15:30;;;;;;;19.20;9.10;;;1.90;66.00;;;;;;2553922;52;20842;-82
2023/02/09 02:18:18;;;;;;;20.70;9.57;;;1.90;65.90;;;;;;2553478;52;20875;-82
2023/02/09 02:23:40;;;;;;;17.50;8.43;;;1.80;65.70;;;;;;2553855;52;21030;-82
2023/02/09 02:26:41;;;;;;;14.68;7.47;;;1.80;65.50;;;;;;2553814;52;20955;-82
2023/02/09 02:29:20;;;;;;;18.98;7.95;;;1.80;65.40;;;;;;2554397;52;21922;-82
2023/02/09 02:32:09;;;;;;;14.57;7.25;;;1.80;65.60;;;;;;2313414;54;20895;-82
2023/02/09 02:34:58;;;;;;;15.98;7.43;;;1.80;65.50;;;;;;2538061;52;20960;-83
2023/02/09 02:37:48;;;;;;;19.08;8.90;;;1.70;65.50;;;;;;2547223;52;20998;-82
2023/02/09 02:40:37;;;;;;;15.98;8.30;;;1.70;65.70;;;;;;2548423;52;20876;-81
2023/02/09 02:43:20;;;;;;;16.90;8.10;;;1.70;65.50;;;;;;2287315;54;21019;-81
2023/02/09 02:45:59;;;;;;;18.02;7.93;;;1.70;65.60;;;;;;2521517;52;20951;-81
2023/02/09 02:49:57;;;;;;;15.02;7.37;;;1.60;65.40;;;;;;2287382;54;20967;-82
2023/02/09 02:52:23;;;;;;;15.20;7.28;;;1.60;64.70;;;;;;2522385;52;20904;-81
2023/02/09 02:55:08;;;;;;;15.70;7.80;;;1.60;65.40;;;;;;2287337;54;20935;-81
2023/02/09 02:57:35;;;;;;;17.70;9.00;;;1.50;65.20;;;;;;2554877;52;20946;-81
2023/02/09 03:00:12;;;;;;;15.50;7.70;;;1.50;65.40;;;;;;2553045;52;20994;-81
2023/02/09 03:02:53;;;;;;;20.95;10.00;;;1.50;65.40;;;;;;2540212;52;21000;-82
2023/02/09 03:05:21;;;;;;;19.48;9.60;;;1.50;65.20;;;;;;2310336;53;20899;-82
2023/02/09 03:07:47;;;;;;;16.65;8.52;;;1.40;65.30;;;;;;2547683;52;21450;-82
2023/02/09 03:10:27;;;;;;;21.75;9.57;;;1.40;65.30;;;;;;2550713;52;20923;-82
2023/02/09 03:13:30;;;;;;;20.23;9.68;;;1.40;65.20;;;;;;2550758;52;21430;-82
2023/02/09 03:16:18;;;;;;;;;;;1.40;65.00;;;;;;2553869;52;20934;-82
2023/02/09 03:26:47;;;;;;;18.87;7.85;;;1.40;64.30;;;;;;2549392;52;20079;-81
2023/02/09 03:29:14;;;;;;;14.38;6.05;;;1.30;64.20;;;;;;2549713;52;20978;-82
2023/02/09 03:31:40;;;;;;;17.83;8.20;;;1.20;65.00;;;;;;2550029;52;20887;-81
2023/02/09 03:34:07;;;;;;;17.90;8.50;;;1.10;65.00;;;;;;2549850;52;21038;-80
2023/02/09 03:36:36;;;;;;;16.77;8.15;;;1.10;65.20;;;;;;2551072;52;20796;-81
2023/02/09 03:39:03;;;;;;;17.55;8.98;;;1.10;65.20;;;;;;2310840;53;20926;-82
2023/02/09 03:41:29;;;;;;;16.27;8.20;;;1.00;65.20;;;;;;2316335;53;21080;-82
2023/02/09 03:46:42;;;;;;;16.25;7.55;;;1.00;65.40;;;;;;2522989;52;20971;-82
2023/02/09 03:49:09;;;;;;;23.55;9.38;;;1.00;65.40;;;;;;2522622;52;20884;-81
2023/02/09 03:51:35;;;;;;;18.35;8.23;;;1.00;65.40;;;;;;2288422;53;21038;-82
2023/02/09 03:54:02;;;;;;;15.25;7.30;;;0.90;65.40;;;;;;2288094;53;21199;-82
2023/02/09 03:57:05;;;;;;;17.35;8.48;;;0.90;65.40;;;;;;2522736;52;20900;-81
2023/02/09 03:59:35;;;;;;;;;;;0.90;65.10;;;;;;2524730;53;21987;-81
2023/02/09 04:02:02;;;;;;;15.77;8.00;;;0.90;64.40;;;;;;2522090;52;20986;-82
2023/02/09 04:04:29;;;;;;;16.87;7.60;;;0.80;65.20;;;;;;2521874;52;21029;-81
2023/02/09 04:06:55;;;;;;;19.67;9.15;;;0.80;65.20;;;;;;2288927;53;21026;-82
2023/02/09 04:09:22;;;;;;;19.58;8.93;;;0.80;65.30;;;;;;2522588;52;20999;-81
2023/02/09 04:11:48;;;;;;;18.67;9.02;;;0.80;65.40;;;;;;2289009;53;20900;-81
2023/02/09 04:14:14;;;;;;;19.33;9.70;;;0.80;65.40;;;;;;2523824;52;21450;-81
2023/02/09 04:16:41;;;;;;;22.08;9.68;;;0.80;65.40;;;;;;2527097;53;21028;-81
2023/02/09 04:19:08;;;;;;;18.77;9.35;;;0.70;65.20;;;;;;2516984;52;20992;-81
2023/02/09 04:21:36;;;;;;;19.33;9.60;;;0.70;65.30;;;;;;2518157;52;20916;-82
2023/02/09 04:24:02;;;;;;;18.67;8.50;;;0.70;65.40;;;;;;2517399;52;22104;-82
2023/02/09 04:26:28;;;;;;;20.50;8.40;;;0.70;65.40;;;;;;2282782;55;20916;-82
2023/02/09 04:28:55;;;;;;;15.32;7.62;;;0.70;65.40;;;;;;2517506;54;21008;-82
2023/02/09 04:31:21;;;;;;;21.58;8.90;;;0.70;65.40;;;;;;2516588;54;20992;-80
2023/02/09 04:33:47;;;;;;;15.25;7.60;;;0.70;65.30;;;;;;2283297;55;20928;-82
2023/02/09 04:36:14;;;;;;;17.98;8.80;;;0.60;65.20;;;;;;2516406;54;21381;-82
2023/02/09 04:38:40;;;;;;;20.25;8.95;;;0.60;65.20;;;;;;2516017;52;20945;-82
2023/02/09 04:41:07;;;;;;;17.48;8.13;;;0.60;65.20;;;;;;2516913;54;20913;-82
2023/02/09 04:43:33;;;;;;;16.17;7.50;;;0.60;65.60;;;;;;2284243;55;22161;-82
2023/02/09 04:45:59;;;;;;;16.40;8.20;;;0.60;65.20;;;;;;2518212;52;20921;-82
2023/02/09 04:48:26;;;;;;;15.30;7.80;;;0.50;65.10;;;;;;2517045;52;21984;-82
2023/02/09 04:50:53;;;;;;;15.60;7.40;;;0.50;65.10;;;;;;2515715;52;20929;-82
2023/02/09 04:53:19;;;;;;;16.35;7.78;;;0.50;65.00;;;;;;2513527;52;22151;-82
2023/02/09 04:55:45;;;;;;;14.55;7.57;;;0.50;65.00;;;;;;2512817;54;20877;-81
2023/02/09 05:00:59;;;;;;;17.70;8.38;;;0.40;64.90;;;;;;2512912;52;20912;-81
2023/02/09 05:03:25;;;;;;;15.13;8.20;;;0.40;64.90;;;;;;2513524;52;21005;-82
2023/02/09 05:05:56;;;;;;;16.42;8.05;;;0.40;65.00;;;;;;2512800;54;21012;-80
2023/02/09 05:08:23;;;;;;;17.65;8.73;;;0.30;65.00;;;;;;2513384;52;21020;-82
2023/02/09 05:10:50;;;;;;;16.70;7.65;;;0.30;65.00;;;;;;2512752;52;20949;-82
2023/02/09 05:13:17;;;;;;;18.08;9.10;;;0.30;64.90;;;;;;2512922;52;20897;-82
2023/02/09 05:15:43;;;;;;;21.77;9.77;;;0.10;64.70;;;;;;2512756;52;21340;-82
2023/02/09 05:18:10;;;;;;;20.23;9.32;;;0.20;64.70;;;;;;2512485;54;20921;-80
2023/02/09 05:20:36;;;;;;;19.65;9.73;;;0.20;64.70;;;;;;2511708;52;21027;-82
2023/02/09 05:23:03;;;;;;;20.35;9.52;;;0.20;64.80;;;;;;2511743;54;20924;-82
2023/02/09 05:25:29;;;;;;;19.62;8.98;;;0.20;64.80;;;;;;2279742;55;20944;-81
2023/02/09 05:27:55;;;;;;;15.90;8.05;;;0.20;64.90;;;;;;2280095;56;22103;-82
2023/02/09 05:30:22;;;;;;;20.15;9.38;;;0.10;64.80;;;;;;2484114;54;20987;-83
2023/02/09 05:32:48;;;;;;;18.58;9.38;;;0.10;64.70;;;;;;2280154;56;20932;-81
2023/02/09 05:35:15;;;;;;;19.98;9.05;;;0.10;64.70;;;;;;2512763;54;20917;-81
2023/02/09 05:37:41;;;;;;;18.50;8.25;;;-0.10;64.50;;;;;;2279631;56;21099;-82
2023/02/09 05:40:08;;;;;;;19.70;9.95;;;0.00;64.60;;;;;;2495641;54;20961;-82
2023/02/09 05:42:34;;;;;;;22.73;10.63;;;0.00;64.70;;;;;;2502157;52;20885;-82
2023/02/09 05:45:00;;;;;;;19.05;8.90;;;0.00;64.70;;;;;;2512784;52;20913;-81
2023/02/09 05:47:27;;;;;;;20.98;10.15;;;0.00;64.70;;;;;;2513116;54;20900;-81
2023/02/09 05:49:53;;;;;;;17.90;8.93;;;-0.10;64.70;;;;;;2513925;52;20976;-82
2023/02/09 05:52:20;;;;;;;23.12;10.50;;;-0.10;64.70;;;;;;2511081;52;21940;-82
2023/02/09 05:54:46;;;;;;;24.25;11.15;;;-0.10;65.40;;;;;;2512493;52;20909;-82
2023/02/09 05:57:13;;;;;;;21.35;10.38;;;-0.10;64.80;;;;;;2279945;56;20956;-82
2023/02/09 05:59:39;;;;;;;24.48;11.73;;;-0.20;64.70;;;;;;2513504;52;20953;-82
2023/02/09 06:02:06;;;;;;;23.75;11.85;;;-0.20;64.70;;;;;;2512909;52;21034;-82
2023/02/09 06:04:32;;;;;;;20.23;9.75;;;-0.20;65.10;;;;;;2513011;52;20982;-81
2023/02/09 06:06:58;;;;;;;21.80;10.20;;;-0.20;65.20;;;;;;2513380;52;20963;-81
2023/02/09 06:09:25;;;;;;;19.12;9.52;;;-0.20;65.30;;;;;;2512968;53;21036;-82
2023/02/09 06:11:51;;;;;;;23.10;11.70;;;-0.20;65.30;;;;;;2493734;52;22010;-82
2023/02/09 06:14:18;;;;;;;24.75;11.82;;;-0.20;65.30;;;;;;2274399;55;20925;-81
2023/02/09 06:16:45;;;;;;;21.33;9.65;;;-0.20;65.20;;;;;;2513742;52;20948;-81
2023/02/09 06:19:15;;;;;;;20.75;9.82;;;-0.20;65.40;;;;;;2280154;56;20945;-82
2023/02/09 06:21:42;;;;;;;23.83;11.60;;;-0.20;65.30;;;;;;2512835;52;20968;-81
2023/02/09 06:24:08;;;;;;;21.48;10.85;;;-0.20;65.20;;;;;;2279460;56;20968;-82
2023/02/09 06:26:34;;;;;;;20.23;10.45;;;-0.20;65.30;;;;;;2513183;53;20948;-82
2023/02/09 06:29:01;;;;;;;18.67;9.75;;;-0.20;65.30;;;;;;2513895;54;20924;-81
2023/02/09 06:31:27;;;;;;;19.35;9.35;;;-0.20;66.00;;;;;;2512228;52;21004;-82
2023/02/09 06:33:53;;;;;;;23.02;10.25;;;-0.20;65.30;;;;;;2487138;53;20917;-81
2023/02/09 06:36:20;;;;;;;20.83;10.35;;;-0.20;65.30;;;;;;2512585;54;20991;-81
2023/02/09 06:38:46;;;;;;;21.75;10.27;;;-0.20;65.40;;;;;;2513390;53;21290;-82
2023/02/09 06:41:12;;;;;;;20.15;9.88;;;-0.20;65.40;;;;;;2513824;52;20979;-82
2023/02/09 06:43:39;;;;;;;24.52;10.80;;;-0.20;65.40;;;;;;2513782;52;20909;-82
2023/02/09 06:46:10;;;;;;;21.95;11.12;;;-0.30;65.30;;;;;;2280413;55;21040;-82
2023/02/09 06:48:37;;;;;;;21.42;9.88;;;-0.30;65.30;;;;;;2513960;53;20943;-82
2023/02/09 06:51:10;;;;;;;22.87;10.75;;;-0.30;65.40;;;;;;2511510;52;20960;-81
2023/02/09 06:53:37;;;;;;;22.70;11.52;;;-0.30;65.80;;;;;;2512970;52;20937;-82
2023/02/09 06:56:04;;;;;;;26.25;11.50;;;-0.30;65.50;;;;;;2512420;52;22347;-82
2023/02/09 06:58:30;;;;;;;25.55;11.20;;;-0.30;65.60;;;;;;2513504;52;22039;-80
2023/02/09 07:01:10;;;;;;;27.60;12.30;;;-0.30;65.70;;;;;;2512996;52;22155;-82
2023/02/09 07:03:36;;;;;;;22.98;11.30;;;-0.30;65.70;;;;;;2280179;55;20921;-82
2023/02/09 07:06:10;;;;;;;27.70;12.82;;;-0.30;65.90;;;;;;2280227;56;20912;-81
2023/02/09 07:08:37;;;;;;;21.58;11.07;;;-0.20;66.20;;;;;;2513924;52;20909;-82
2023/02/09 07:11:04;;;;;;;24.52;10.70;;;-0.20;66.20;;;;;;2279949;55;21288;-81
2023/02/09 07:13:31;;;;;;;23.05;10.50;;;-0.20;66.30;;;;;;2514001;52;22007;-82
2023/02/09 07:15:58;;;;;;;22.98;10.70;;;-0.20;66.30;;;;;;2514327;52;21429;-82
2023/02/09 07:18:24;;;;;;;20.05;9.60;;;-0.20;66.40;;;;;;2513391;52;20888;-82
2023/02/09 07:21:01;;;;;;;21.52;10.27;;;-0.10;66.40;;;;;;2512812;52;20952;-81
2023/02/09 07:23:28;;;;;;;20.42;9.50;;;-0.10;66.40;;;;;;2513763;52;20968;-82
2023/02/09 07:25:54;;;;;;;23.73;9.57;;;-0.10;66.30;;;;;;2489395;52;20898;-82
2023/02/09 07:28:20;;;;;;;22.83;10.10;;;-0.10;66.20;;;;;;2513751;52;21979;-83
2023/02/09 07:30:50;;;;;;;21.50;9.80;;;-0.10;66.30;;;;;;2514682;54;20909;-84
2023/02/09 07:33:18;;;;;;;22.00;10.35;;;-0.20;66.10;;;;;;2515804;52;20909;-83
2023/02/09 07:35:44;;;;;;;24.30;11.65;;;0.00;66.30;;;;;;2515764;52;20901;-83
2023/02/09 07:38:11;;;;;;;23.45;11.30;;;0.00;66.20;;;;;;2517977;52;22042;-83
2023/02/09 07:40:37;;;;;;;28.45;12.37;;;0.00;66.10;;;;;;2515188;53;20931;-83
2023/02/09 07:43:04;;;;;;;26.55;12.23;;;0.00;66.40;;;;;;2516024;52;20928;-82
2023/02/09 07:45:31;;;;;;;23.87;11.88;;;0.00;66.50;;;;;;2516208;52;20926;-82
2023/02/09 07:47:57;;;;;;;25.73;12.35;;;0.10;66.60;;;;;;2516443;52;20953;-83
2023/02/09 07:50:23;;;;;;;23.50;11.12;;;0.10;66.70;;;;;;2281710;55;20924;-84
2023/02/09 07:52:52;;;;;;;25.17;11.52;;;0.10;66.90;;;;;;2515719;52;21568;-83
2023/02/09 07:55:19;;;;;;;26.48;11.77;;;0.20;67.00;;;;;;2516018;52;20981;-84
2023/02/09 07:57:45;;;;;;;27.92;13.05;;;0.20;67.00;;;;;;2517238;52;20944;-82
2023/02/09 08:00:12;;;;;;;23.10;11.68;;;0.20;67.00;;;;;;2515799;52;21373;-82
2023/02/09 08:02:39;;;;;;;26.35;12.82;;;0.20;67.30;;;;;;2281979;56;20877;-83
2023/02/09 08:05:16;;;;;;;26.98;12.20;;;0.30;67.30;;;;;;2515921;52;21985;-83
2023/02/09 08:07:42;;;;;;;23.20;12.10;;;0.30;67.40;;;;;;2281096;56;21304;-83
2023/02/09 08:10:09;;;;;;;27.35;13.07;;;0.40;67.50;;;;;;2515048;52;20905;-84
2023/02/09 08:15:20;;;;;;;30.20;13.88;;;0.40;67.50;;;;;;2516856;52;20916;-82
2023/02/09 08:17:47;;;;;;;25.23;12.52;;;0.50;67.60;;;;;;2282875;56;21004;-83
2023/02/09 08:20:15;;;;;;;26.85;12.30;;;0.50;67.60;;;;;;2282392;55;20944;-83
2023/02/09 08:22:44;;;;;;;25.95;13.13;;;0.60;67.80;;;;;;2516688;52;20917;-83
2023/02/09 08:25:10;;;;;;;23.08;11.63;;;0.60;67.80;;;;;;2515951;52;21442;-83
2023/02/09 08:27:38;;;;;;;31.20;13.23;;;0.70;67.80;;;;;;2517300;52;20929;-83
2023/02/09 08:30:04;;;;;;;33.70;14.15;;;0.70;67.90;;;;;;2284161;56;21276;-83
2023/02/09 08:32:30;;;;;;;32.20;15.32;;;0.80;68.00;;;;;;2516419;54;20885;-83
2023/02/09 08:34:57;;;;;;;42.97;19.33;;;0.80;67.90;;;;;;2516879;54;20897;-83
2023/02/09 08:37:23;;;;;;;44.67;21.12;;;0.70;67.80;;;;;;2515866;52;20984;-82
2023/02/09 08:39:50;;;;;;;42.62;19.65;;;0.90;68.00;;;;;;2282885;56;20901;-85
2023/02/09 08:42:16;;;;;;;38.10;18.52;;;1.00;68.30;;;;;;2516067;52;20976;-84
2023/02/09 08:44:43;;;;;;;33.55;16.48;;;1.00;68.40;;;;;;2515556;52;20893;-85
2023/02/09 08:47:09;;;;;;;34.33;16.52;;;1.10;68.50;;;;;;2282359;56;20954;-82
2023/02/09 08:49:36;;;;;;;35.33;17.67;;;1.20;68.70;;;;;;2282066;55;20928;-83
2023/02/09 08:52:02;;;;;;;36.75;16.67;;;1.20;68.70;;;;;;2516516;52;20889;-82
2023/02/09 08:54:28;;;;;;;28.80;14.13;;;1.30;68.80;;;;;;2515983;52;21012;-82
2023/02/09 08:56:55;;;;;;;27.73;14.35;;;1.40;68.90;;;;;;2516673;52;20904;-83
2023/02/09 08:59:22;;;;;;;32.45;15.98;;;1.40;69.00;;;;;;2516600;52;20905;-83
2023/02/09 09:01:48;;;;;;;38.03;17.65;;;1.40;68.90;;;;;;2516185;52;20975;-82
2023/02/09 09:04:14;;;;;;;34.92;16.62;;;1.50;69.00;;;;;;2516310;52;20897;-83
2023/02/09 09:06:41;;;;;;;28.02;14.32;;;1.60;69.10;;;;;;2489767;52;21385;-83
2023/02/09 09:09:07;;;;;;;30.15;15.07;;;1.70;69.20;;;;;;2517043;52;20909;-82
2023/02/09 09:11:33;;;;;;;28.58;14.40;;;1.70;69.20;;;;;;2281588;55;21000;-83
2023/02/09 09:14:00;;;;;;;27.08;13.75;;;1.80;69.20;;;;;;2517326;52;21740;-86
2023/02/09 09:16:26;;;;;;;33.63;16.37;;;1.90;69.40;;;;;;2517014;54;20917;-85
2023/02/09 09:18:52;;;;;;;33.28;15.73;;;1.80;69.30;;;;;;2287651;56;20873;-87
2023/02/09 09:21:19;;;;;;;33.35;15.48;;;2.00;69.50;;;;;;2490223;53;20978;-82
2023/02/09 09:23:45;;;;;;;35.35;15.77;;;2.10;69.60;;;;;;2516948;52;20873;-81
2023/02/09 09:26:12;;;;;;;34.15;17.15;;;2.20;69.80;;;;;;2283359;56;20975;-82
2023/02/09 09:28:38;;;;;;;39.90;18.17;;;2.30;69.80;;;;;;2517453;52;20967;-83
2023/02/09 09:31:15;;;;;;;29.48;15.43;;;2.40;70.00;;;;;;2517604;52;21328;-81
2023/02/09 09:33:41;;;;;;;37.17;17.58;;;2.50;70.00;;;;;;2490384;53;20913;-81
2023/02/09 09:36:08;;;;;;;35.03;18.00;;;2.50;70.10;;;;;;2516545;52;20873;-82
2023/02/09 09:38:35;;;;;;;36.97;18.90;;;2.60;70.20;;;;;;2515878;52;20924;-81
2023/02/09 09:41:02;;;;;;;30.23;15.85;;;2.70;70.30;;;;;;2516413;52;22112;-82
2023/02/09 09:43:38;;;;;;;36.17;18.48;;;2.80;70.40;;;;;;2281708;56;20924;-82
2023/02/09 09:46:05;;;;;;;38.67;20.05;;;2.90;70.30;;;;;;2515360;52;20886;-82
2023/02/09 09:48:51;;;;;;;35.88;17.73;;;3.00;70.70;;;;;;2515251;52;20972;-81
2023/02/09 09:51:22;;;;;;;34.65;17.73;;;3.10;70.70;;;;;;2515064;52;20924;-82
2023/02/09 09:53:49;;;;;;;41.92;20.33;;;3.20;71.20;;;;;;2515424;52;20857;-82
2023/02/09 09:56:17;;;;;;;34.60;18.05;;;3.40;71.60;;;;;;2516188;54;21967;-82
2023/02/09 09:58:43;;;;;;;37.75;20.27;;;3.50;72.10;;;;;;2515958;52;22174;-82
2023/02/09 10:01:13;;;;;;;37.33;20.80;;;3.70;72.50;;;;;;2513739;52;20917;-81
2023/02/09 10:03:39;;;;;;;34.97;18.05;;;3.80;72.90;;;;;;2502268;52;20958;-81
2023/02/09 10:06:20;;;;;;;37.30;19.85;;;3.90;73.10;;;;;;2499179;52;20870;-82
2023/02/09 10:08:56;;;;;;;35.25;18.10;;;4.10;73.10;;;;;;2514325;52;20944;-82
2023/02/09 10:12:47;;;;;;;30.75;16.90;;;4.30;73.20;;;;;;2514397;52;20881;-82
2023/02/09 10:15:33;;;;;;;38.53;19.10;;;4.50;71.80;;;;;;2280719;56;21793;-82
2023/02/09 10:17:59;;;;;;;34.70;18.02;;;4.70;72.60;;;;;;2514900;52;20953;-83
2023/02/09 10:22:19;;;;;;;31.75;17.37;;;4.80;73.30;;;;;;2514430;52;20904;-83
2023/02/09 10:24:45;;;;;;;31.02;17.52;;;5.10;72.00;;;;;;2280397;56;20925;-83
2023/02/09 10:27:28;;;;;;;28.70;16.27;;;5.20;73.60;;;;;;2515150;52;20857;-83
2023/02/09 10:29:54;;;;;;;;;;;5.30;73.70;;;;;;2284233;56;20937;-83
2023/02/09 10:32:39;;;;;;;26.40;12.73;;;5.50;72.40;;;;;;2514217;52;20873;-83
2023/02/09 10:35:43;;;;;;;26.48;14.75;;;5.60;73.10;;;;;;2280650;55;22225;-82
2023/02/09 10:38:17;;;;;;;32.20;16.90;;;5.70;73.20;;;;;;2514298;52;20889;-83
2023/02/09 10:40:44;;;;;;;27.87;16.02;;;5.80;72.80;;;;;;2279873;55;21319;-82
2023/02/09 10:43:30;;;;;;;30.33;16.80;;;5.90;72.90;;;;;;2514557;52;20925;-83
2023/02/09 10:45:58;;;;;;;29.12;16.35;;;6.00;72.50;;;;;;2514664;52;21743;-84
2023/02/09 10:48:25;;;;;;;31.87;17.50;;;6.10;73.10;;;;;;2514762;52;20891;-85
2023/02/09 10:51:06;;;;;;;31.15;17.65;;;6.30;73.60;;;;;;2513360;52;21012;-83
2023/02/09 10:53:41;;;;;;;27.87;15.73;;;6.40;73.30;;;;;;2513502;52;21991;-84
2023/02/09 10:56:21;;;;;;;27.37;16.12;;;6.60;73.70;;;;;;2513975;52;20877;-83
2023/02/09 10:58:53;;;;;;;24.75;14.35;;;6.70;73.20;;;;;;2279821;55;22208;-82
2023/02/09 11:01:23;;;;;;;22.70;13.02;;;6.80;73.10;;;;;;2514201;52;20886;-83
2023/02/09 11:04:04;;;;;;;24.58;13.90;;;6.90;72.60;;;;;;2280409;56;20896;-82
2023/02/09 11:07:17;;;;;;;25.00;13.57;;;7.00;71.80;;;;;;2514716;52;21447;-82
2023/02/09 11:09:46;;;;;;;24.02;13.48;;;7.10;70.70;;;;;;2513851;52;20845;-83
2023/02/09 11:12:12;;;;;;;22.73;13.85;;;7.10;71.80;;;;;;2514644;52;21513;-83
2023/02/09 11:14:41;;;;;;;24.23;14.27;;;7.10;71.60;;;;;;2280416;56;20940;-82
2023/02/09 11:18:01;;;;;;;24.85;14.95;;;7.20;71.50;;;;;;2514497;52;21956;-83
2023/02/09 11:20:34;;;;;;;25.15;13.70;;;7.30;70.50;;;;;;2284103;56;20900;-82
2023/02/09 11:26:29;;;;;;;25.42;14.30;;;7.30;72.10;;;;;;2518629;52;20889;-83
2023/02/09 11:29:05;;;;;;;18.52;11.23;;;7.50;70.80;;;;;;2284089;56;20885;-83
2023/02/09 11:35:13;;;;;;;22.17;12.20;;;7.60;72.20;;;;;;2517776;52;20964;-82
2023/02/09 11:38:02;;;;;;;21.15;12.45;;;7.80;70.60;;;;;;2518022;52;20983;-83
2023/02/09 11:40:36;;;;;;;26.95;14.55;;;7.90;72.10;;;;;;2518069;52;20905;-82
2023/02/09 11:43:52;;;;;;;23.77;13.77;;;8.00;73.10;;;;;;2518625;52;20893;-82
2023/02/09 11:46:19;;;;;;;22.50;12.98;;;8.10;72.70;;;;;;2284784;56;21091;-83
2023/02/09 11:48:55;;;;;;;25.02;15.25;;;8.20;73.10;;;;;;2518101;52;20885;-83
2023/02/09 11:51:22;;;;;;;26.00;16.58;;;8.30;72.60;;;;;;2284192;55;20917;-83
2023/02/09 11:54:13;;;;;;;24.00;14.93;;;8.40;73.10;;;;;;2282735;56;20950;-83
2023/02/09 11:56:41;;;;;;;22.85;14.10;;;8.50;72.20;;;;;;2501355;52;20925;-83
2023/02/09 11:59:32;;;;;;;22.42;13.48;;;8.50;72.80;;;;;;2285114;56;20888;-84
2023/02/09 12:02:18;;;;;;;23.27;14.07;;;8.60;71.60;;;;;;2286147;56;21388;-83
2023/02/09 12:05:00;;;;;;;19.77;12.05;;;8.70;71.60;;;;;;2518347;52;21000;-83
2023/02/09 12:07:41;;;;;;;25.80;15.60;;;8.80;71.50;;;;;;2518568;52;20969;-84
2023/02/09 12:10:39;;;;;;;22.75;14.02;;;8.80;71.50;;;;;;2519234;52;20919;-83
2023/02/09 12:16:09;;;;;;;22.52;13.93;;;8.80;71.50;;;;;;2518199;52;21303;-82
2023/02/09 12:18:38;;;;;;;19.10;11.18;;;8.90;71.30;;;;;;2517690;54;20925;-82
2023/02/09 12:21:04;;;;;;;22.67;12.93;;;9.00;71.10;;;;;;2516408;54;22200;-83
2023/02/09 12:23:31;;;;;;;22.42;13.60;;;8.90;70.80;;;;;;2517228;54;20885;-83
2023/02/09 12:27:02;;;;;;;23.05;13.85;;;9.00;70.60;;;;;;2518060;52;20884;-82
2023/02/09 12:29:38;;;;;;;21.90;12.68;;;9.00;70.30;;;;;;2490192;53;21621;-83
2023/02/09 12:32:22;;;;;;;29.00;15.95;;;9.00;69.80;;;;;;2518393;52;21544;-82
2023/02/09 12:34:51;;;;;;;25.98;14.70;;;8.90;69.80;;;;;;2517666;53;21118;-83
2023/02/09 12:37:21;;;;;;;46.13;22.62;;;9.00;70.40;;;;;;2518524;52;20901;-82
2023/02/09 12:40:17;;;;;;;35.05;19.23;;;9.00;70.50;;;;;;2517709;52;21071;-83
2023/02/09 12:43:08;;;;;;;26.40;15.60;;;9.00;69.80;;;;;;2517849;52;20925;-82
2023/02/09 12:45:38;;;;;;;23.30;13.80;;;9.00;69.80;;;;;;2283686;56;20913;-83
2023/02/09 12:48:12;;;;;;;21.33;12.90;;;9.10;70.80;;;;;;2518050;52;20992;-83
2023/02/09 12:50:56;;;;;;;24.48;13.75;;;9.10;70.10;;;;;;2283474;56;20881;-83
2023/02/09 12:53:33;;;;;;;21.90;13.77;;;9.10;69.60;;;;;;2518485;52;20826;-83
2023/02/09 12:56:46;;;;;;;21.20;13.35;;;9.10;69.90;;;;;;2284892;56;21059;-82
2023/02/09 12:59:14;;;;;;;22.08;12.68;;;9.20;70.30;;;;;;2518933;52;21000;-83
2023/02/09 13:02:10;;;;;;;18.98;12.18;;;9.20;70.40;;;;;;2284904;56;21004;-82
2023/02/09 13:04:44;;;;;;;18.12;10.82;;;9.30;69.30;;;;;;2287100;56;20900;-83
2023/02/09 13:08:01;;;;;;;18.90;12.13;;;9.30;70.40;;;;;;2263657;55;20873;-83
2023/02/09 13:11:30;;;;;;;17.98;11.40;;;9.30;70.30;;;;;;2518531;53;21043;-83
2023/02/09 13:14:02;;;;;;;20.08;12.65;;;9.40;69.80;;;;;;2284478;56;22140;-83
2023/02/09 13:18:06;;;;;;;20.95;12.43;;;9.40;70.70;;;;;;2518653;52;20980;-82
2023/02/09 13:23:28;;;;;;;19.62;12.37;;;9.40;70.00;;;;;;2518093;52;20896;-82
2023/02/09 13:26:00;;;;;;;18.80;10.60;;;9.50;69.40;;;;;;2490045;53;20981;-82
2023/02/09 13:28:26;;;;;;;;;;;9.50;70.20;;;;;;2522453;52;20881;-83
2023/02/09 13:30:53;;;;;;;16.02;10.18;;;9.60;68.60;;;;;;2517559;52;21470;-82
2023/02/09 13:33:40;;;;;;;16.85;10.20;;;9.50;70.50;;;;;;2518721;52;20866;-82
2023/02/09 13:38:11;;;;;;;20.08;11.95;;;9.60;69.60;;;;;;2518368;52;20897;-83
2023/02/09 13:40:47;;;;;;;15.65;10.15;;;9.60;68.50;;;;;;2517847;52;20929;-83
2023/02/09 13:43:19;;;;;;;18.70;11.93;;;9.70;70.10;;;;;;2518743;52;20933;-82